Hlavní strana
METAR-TAF:

METAR-TAF

Letiště :

Huambo, Angola

zeměpisná šířka: 12-48-32S, zeměpisná délka: 015-45-38E, výška: 1710 m

Aktuální stav počasí

Zpráva byla vytvořena před 13 hodinami a 18 minutami, v 15:00 UTC
Bezvětří
Teplota 26°C
Vlhkost vzduchu 32%
Tlak 1021 hPa
Viditelnost 10 km a více
Žádná oblačnost pod 1500 m, nevyskytují se cumulonimby.

METAR: FNHU 251500Z 00000KT CAVOK 26/08 Q1021

Čas: 05:18 (04:18 UTC)

Předpověď počasí

Zpráva byla vytvořena před 5 hodinami a 18 minutami, v 23:00 UTC
Předpověď platná od 26 v 00 UTC do 26 v 12 UTC
Jihozápadní vítr 4 kt
Viditelnost 10 km a více
Polojasno ve výšce 1500 ft
Dočasný
od 26 v 06 UTC do 26 v 10 UTC
vítr z různých směrů 3 kt
Viditelnost 10 km a více
Žádná oblačnost pod 1500 m, nevyskytují se cumulonimby.

TAF: FNHU 252300Z 2600/2612 23004KT 9999 SCT015 TEMPO 2606/2610 VRB03KT CAVOK

Stav a předpovědi počasí z více než 4 000 letišť (zprávy METAR a TAF).

Červené a žluté tečky na mapě představují dostupné meteorologické stanice.

Když kurzor umístíte na tečku, zobrazí se název stanice.

Pak kliknutím zobrazíte stav a předpověď počasí.

Chcete-li změnit mapu, kliknutím na zelené tlačítko se znaménkem +mapu přiblížíte, kliknutím na zelené tlačítko se znaménkem – mapu oddálíte a kliknutím na zelené šipky přejdete na sousední mapy.


METAR-TAF: